Time;durP1;ratioP1;P1;durP2;ratioP2;P2;SDS_P1;SDS_P2;PMS_P1;PMS_P2;Temp;Humidity;BMP_temperature;BMP_pressure;BME280_temperature;BME280_humidity;BME280_pressure;Samples;Min_cycle;Max_cycle;Signal;HPM_P1;HPM_P2
2022/07/06 00:00:06;;;;;;;1.70;1.20;;;24.90;86.90;;;;;;5014222;28;20033;-83
2022/07/06 00:02:32;;;;;;;1.92;1.20;;;24.80;86.80;;;;;;5010200;28;20060;-84
2022/07/06 00:04:58;;;;;;;1.73;1.23;;;24.80;86.90;;;;;;5018352;28;20037;-83
2022/07/06 00:07:24;;;;;;;2.90;1.60;;;24.80;86.90;;;;;;4998835;28;20034;-83
2022/07/06 00:09:50;;;;;;;2.65;1.10;;;24.80;87.00;;;;;;5000880;28;20029;-83
2022/07/06 00:12:16;;;;;;;1.75;1.20;;;24.80;87.00;;;;;;5001182;28;20504;-84
2022/07/06 00:14:41;;;;;;;4.15;1.33;;;24.70;87.00;;;;;;5013467;28;20029;-83
2022/07/06 00:17:07;;;;;;;2.55;1.48;;;24.70;87.10;;;;;;5013789;28;20045;-83
2022/07/06 00:19:33;;;;;;;6.07;1.23;;;24.70;87.10;;;;;;5014120;28;20104;-83
2022/07/06 00:21:58;;;;;;;2.67;1.38;;;24.70;87.20;;;;;;5014082;28;20033;-84
2022/07/06 00:24:24;;;;;;;4.40;1.48;;;24.70;87.20;;;;;;5013131;28;20026;-84
2022/07/06 00:26:50;;;;;;;4.28;1.60;;;24.60;87.20;;;;;;5022790;28;20038;-83
2022/07/06 00:29:16;;;;;;;3.03;1.40;;;24.70;87.40;;;;;;5010794;28;20025;-83
2022/07/06 00:31:41;;;;;;;2.53;1.30;;;24.60;87.30;;;;;;5013671;28;20026;-84
2022/07/06 00:34:07;;;;;;;1.95;1.35;;;24.60;87.40;;;;;;4998410;28;20029;-83
2022/07/06 00:36:33;;;;;;;3.35;1.70;;;24.60;87.40;;;;;;4996821;28;20032;-83
2022/07/06 00:38:58;;;;;;;3.03;1.40;;;24.60;87.40;;;;;;5009664;28;20095;-84
2022/07/06 00:41:24;;;;;;;2.40;1.40;;;24.50;87.40;;;;;;5001008;28;20191;-83
2022/07/06 00:43:57;;;;;;;1.77;1.20;;;24.50;87.40;;;;;;5006531;28;20040;-83
2022/07/06 00:46:32;;;;;;;1.87;1.30;;;24.50;87.50;;;;;;5001593;28;20521;-83
2022/07/06 00:48:58;;;;;;;2.22;1.30;;;24.50;87.50;;;;;;5003172;28;20294;-83
2022/07/06 00:51:32;;;;;;;4.05;1.30;;;24.50;87.50;;;;;;5025139;28;20105;-83
2022/07/06 00:54:04;;;;;;;3.70;1.80;;;24.50;87.60;;;;;;5001476;28;20389;-83
2022/07/06 00:56:31;;;;;;;2.45;1.25;;;24.40;87.70;;;;;;5008766;28;20038;-83
2022/07/06 00:58:57;;;;;;;4.20;1.42;;;24.40;87.60;;;;;;5019957;28;20499;-83
2022/07/06 01:01:23;;;;;;;2.40;1.40;;;24.40;87.70;;;;;;5013047;28;20468;-83
2022/07/06 01:03:49;;;;;;;3.60;1.38;;;24.40;87.70;;;;;;5012409;28;20030;-83
2022/07/06 01:06:15;;;;;;;3.05;1.73;;;24.40;87.70;;;;;;5015435;28;20029;-83
2022/07/06 01:08:41;;;;;;;2.78;1.48;;;24.40;87.80;;;;;;5015812;28;20025;-83
2022/07/06 01:11:07;;;;;;;3.42;1.58;;;24.30;87.70;;;;;;5029655;28;20080;-83
2022/07/06 01:13:33;;;;;;;2.13;1.30;;;24.30;87.80;;;;;;5005426;28;20022;-83
2022/07/06 01:16:00;;;;;;;2.95;1.67;;;24.30;87.80;;;;;;5022310;28;20507;-83
2022/07/06 01:18:25;;;;;;;2.72;1.60;;;24.30;87.80;;;;;;5032302;28;20040;-84
2022/07/06 01:20:51;;;;;;;3.65;1.33;;;24.30;87.80;;;;;;5014311;28;20029;-83
2022/07/06 01:23:17;;;;;;;2.72;1.48;;;24.20;88.40;;;;;;5006415;28;20026;-83
2022/07/06 01:25:43;;;;;;;3.30;1.70;;;24.20;87.90;;;;;;5027528;28;20033;-83
2022/07/06 01:28:09;;;;;;;2.45;1.50;;;24.20;87.80;;;;;;4998906;28;20450;-84
2022/07/06 01:30:34;;;;;;;3.40;1.50;;;24.20;87.90;;;;;;5010584;28;20072;-83
2022/07/06 01:33:00;;;;;;;3.78;1.67;;;24.20;87.80;;;;;;5005546;28;20068;-83
2022/07/06 01:35:29;;;;;;;3.42;1.48;;;24.20;87.80;;;;;;5017070;28;20033;-83
2022/07/06 01:37:54;;;;;;;3.60;1.35;;;24.20;87.70;;;;;;5006104;28;20037;-83
2022/07/06 01:40:20;;;;;;;3.63;1.58;;;24.10;87.60;;;;;;5022119;28;20061;-83
2022/07/06 01:42:46;;;;;;;7.72;1.60;;;24.10;88.40;;;;;;5013449;28;20439;-83
2022/07/06 01:45:11;;;;;;;4.88;1.50;;;24.10;87.60;;;;;;5004301;28;20028;-83
2022/07/06 01:47:37;;;;;;;2.65;1.38;;;24.10;87.60;;;;;;5003499;28;20518;-83
2022/07/06 01:50:07;;;;;;;3.47;1.45;;;24.10;87.70;;;;;;5006831;28;20429;-84
2022/07/06 01:52:33;;;;;;;2.47;1.60;;;24.10;87.70;;;;;;5005235;28;20029;-83
2022/07/06 01:54:58;;;;;;;5.20;1.65;;;24.00;87.50;;;;;;5030382;28;20029;-83
2022/07/06 01:57:24;;;;;;;2.50;1.60;;;24.00;87.50;;;;;;5015553;28;20069;-83
2022/07/06 01:59:50;;;;;;;3.53;1.70;;;24.00;87.60;;;;;;5006861;28;20581;-83
2022/07/06 02:02:17;;;;;;;2.47;1.40;;;24.00;87.50;;;;;;5021244;28;20021;-83
2022/07/06 02:04:42;;;;;;;1.63;1.38;;;24.00;87.40;;;;;;5034272;28;20021;-83
2022/07/06 02:07:08;;;;;;;2.50;1.55;;;24.00;87.50;;;;;;5001609;28;20038;-83
2022/07/06 02:09:34;;;;;;;1.88;1.30;;;23.90;87.50;;;;;;4998658;28;20124;-83
2022/07/06 02:11:59;;;;;;;2.35;1.50;;;23.90;87.50;;;;;;4997331;28;20095;-83
2022/07/06 02:14:25;;;;;;;6.22;1.55;;;23.90;87.50;;;;;;5006682;28;20500;-83
2022/07/06 02:16:51;;;;;;;2.53;1.75;;;23.90;87.50;;;;;;5007884;28;20029;-83
2022/07/06 02:19:16;;;;;;;3.05;1.35;;;23.90;87.50;;;;;;5034816;28;20029;-83
2022/07/06 02:21:42;;;;;;;2.38;1.58;;;23.90;87.40;;;;;;5021187;28;20022;-83
2022/07/06 02:24:08;;;;;;;2.83;1.40;;;23.90;87.60;;;;;;4999502;28;20116;-83
2022/07/06 02:26:33;;;;;;;4.60;1.58;;;23.80;87.60;;;;;;5016290;28;20083;-83
2022/07/06 02:28:59;;;;;;;2.17;1.42;;;23.80;87.60;;;;;;5009380;28;20029;-83
2022/07/06 02:31:24;;;;;;;3.95;1.55;;;23.80;87.60;;;;;;5033419;28;20021;-84
2022/07/06 02:33:50;;;;;;;5.13;1.30;;;23.80;87.60;;;;;;5004578;28;20393;-83
2022/07/06 02:36:16;;;;;;;2.67;1.50;;;23.80;87.60;;;;;;5011119;28;20075;-83
2022/07/06 02:38:41;;;;;;;1.85;1.45;;;23.80;87.60;;;;;;5011761;28;20531;-83
2022/07/06 02:41:07;;;;;;;2.97;1.60;;;23.80;87.60;;;;;;5008984;28;20036;-83
2022/07/06 02:43:33;;;;;;;3.05;1.60;;;23.80;87.80;;;;;;4999192;28;20044;-83
2022/07/06 02:45:58;;;;;;;2.55;1.42;;;23.70;87.70;;;;;;5014634;28;20030;-83
2022/07/06 02:48:24;;;;;;;4.18;1.63;;;23.80;87.70;;;;;;4996933;28;20060;-83
2022/07/06 02:50:50;;;;;;;2.45;1.48;;;23.70;87.70;;;;;;4998159;28;20025;-83
2022/07/06 02:53:18;;;;;;;2.75;1.40;;;23.70;87.80;;;;;;5009000;28;20120;-83
2022/07/06 02:55:44;;;;;;;3.00;1.23;;;23.70;87.90;;;;;;5017250;28;20366;-83
2022/07/06 02:58:09;;;;;;;3.35;1.65;;;23.60;87.80;;;;;;5020471;28;20065;-83
2022/07/06 03:00:35;;;;;;;2.90;1.45;;;23.70;87.90;;;;;;5027846;28;20065;-84
2022/07/06 03:03:01;;;;;;;2.65;1.55;;;23.60;87.80;;;;;;5000321;28;20121;-83
2022/07/06 03:05:26;;;;;;;2.78;1.45;;;23.60;87.80;;;;;;5032522;28;20029;-83
2022/07/06 03:07:52;;;;;;;3.28;1.73;;;23.60;87.70;;;;;;5010642;28;20450;-83
2022/07/06 03:10:18;;;;;;;3.78;1.40;;;23.60;87.90;;;;;;5028435;28;20029;-83
2022/07/06 03:12:43;;;;;;;4.70;1.52;;;23.60;88.00;;;;;;4996231;28;20416;-83
2022/07/06 03:15:10;;;;;;;2.38;1.20;;;23.60;88.10;;;;;;5005024;28;20037;-83
2022/07/06 03:17:37;;;;;;;3.28;1.38;;;23.50;88.00;;;;;;5011130;28;20548;-84
2022/07/06 03:20:04;;;;;;;2.35;1.30;;;23.50;88.00;;;;;;5015591;28;20037;-84
2022/07/06 03:22:30;;;;;;;4.50;1.50;;;23.50;87.90;;;;;;5011675;28;20476;-83
2022/07/06 03:24:56;;;;;;;5.55;1.50;;;23.50;88.10;;;;;;5000774;28;20029;-83
2022/07/06 03:27:21;;;;;;;2.30;1.33;;;23.50;88.10;;;;;;5006017;28;20029;-83
2022/07/06 03:29:47;;;;;;;2.97;1.25;;;23.50;88.00;;;;;;5010556;28;20024;-83
2022/07/06 03:32:13;;;;;;;2.33;1.55;;;23.50;88.00;;;;;;5014866;28;20022;-83
2022/07/06 03:34:38;;;;;;;2.25;1.50;;;23.50;88.00;;;;;;5012490;28;20029;-83
2022/07/06 03:37:05;;;;;;;2.47;1.17;;;23.40;88.10;;;;;;5006275;28;20029;-83
2022/07/06 03:39:31;;;;;;;3.95;1.50;;;23.40;88.10;;;;;;5000175;28;20064;-83
2022/07/06 03:41:57;;;;;;;2.70;1.30;;;23.40;88.30;;;;;;5015267;28;20057;-83
2022/07/06 03:44:22;;;;;;;3.15;1.25;;;23.40;88.20;;;;;;4998135;28;20030;-83
2022/07/06 03:46:50;;;;;;;1.85;1.25;;;23.40;88.20;;;;;;4997668;28;20505;-83
2022/07/06 03:49:16;;;;;;;2.10;1.35;;;23.40;88.20;;;;;;5014017;28;20018;-83
2022/07/06 03:51:42;;;;;;;3.30;1.40;;;23.40;88.20;;;;;;5009002;28;20049;-83
2022/07/06 03:54:07;;;;;;;4.00;1.65;;;23.30;88.30;;;;;;4996034;28;20029;-84
2022/07/06 03:56:33;;;;;;;2.10;1.42;;;23.40;88.40;;;;;;5000123;28;20025;-83
2022/07/06 03:59:01;;;;;;;2.75;1.30;;;23.30;88.50;;;;;;5001080;28;20033;-83
2022/07/06 04:01:27;;;;;;;3.10;1.58;;;23.30;88.40;;;;;;5025660;28;20026;-83
2022/07/06 04:03:53;;;;;;;2.90;1.27;;;23.30;88.50;;;;;;5013639;28;20026;-83
2022/07/06 04:06:19;;;;;;;2.78;1.30;;;23.30;88.50;;;;;;5009481;28;20117;-83
2022/07/06 04:08:44;;;;;;;3.38;1.40;;;23.30;88.50;;;;;;5001682;28;20113;-83
2022/07/06 04:11:10;;;;;;;3.03;1.50;;;23.30;88.50;;;;;;4996639;28;20021;-83
2022/07/06 04:13:36;;;;;;;2.97;1.45;;;23.30;88.70;;;;;;5000323;28;20030;-83
2022/07/06 04:16:03;;;;;;;2.78;1.52;;;23.20;88.60;;;;;;5004117;28;20487;-83
2022/07/06 04:18:28;;;;;;;3.13;1.60;;;23.30;88.70;;;;;;5032094;28;20505;-83
2022/07/06 04:20:54;;;;;;;2.97;1.80;;;23.20;88.80;;;;;;5011633;28;20022;-83
2022/07/06 04:23:20;;;;;;;2.58;1.60;;;23.20;88.80;;;;;;5010883;28;20034;-83
2022/07/06 04:25:46;;;;;;;3.05;1.60;;;23.30;88.90;;;;;;5011578;28;20038;-83
2022/07/06 04:28:11;;;;;;;2.50;1.50;;;23.20;88.90;;;;;;5035826;28;20030;-83
2022/07/06 04:30:37;;;;;;;3.67;1.70;;;23.20;89.00;;;;;;5017566;28;20120;-83
2022/07/06 04:33:03;;;;;;;2.88;1.52;;;23.20;89.10;;;;;;5031116;28;20030;-83
2022/07/06 04:35:28;;;;;;;4.40;1.70;;;23.20;89.20;;;;;;4999463;28;20109;-83
2022/07/06 04:37:54;;;;;;;6.05;1.42;;;23.20;89.20;;;;;;5000038;28;20084;-83
2022/07/06 04:40:20;;;;;;;5.75;1.95;;;23.20;89.30;;;;;;5021596;28;20507;-83
2022/07/06 04:42:45;;;;;;;3.92;1.60;;;23.20;89.40;;;;;;5017688;28;20417;-83
2022/07/06 04:45:11;;;;;;;6.90;1.60;;;23.20;89.50;;;;;;5008866;28;20030;-83
2022/07/06 04:47:37;;;;;;;3.33;1.65;;;23.20;89.60;;;;;;5025678;28;20523;-83
2022/07/06 04:50:04;;;;;;;2.97;1.73;;;23.20;89.70;;;;;;5016913;28;20022;-83
2022/07/06 04:52:30;;;;;;;3.40;1.60;;;23.20;89.70;;;;;;5028589;28;20057;-83
2022/07/06 04:54:55;;;;;;;3.50;1.55;;;23.20;89.80;;;;;;5011475;28;20068;-83
2022/07/06 04:57:21;;;;;;;3.97;1.65;;;23.20;89.90;;;;;;5000293;28;20030;-83
2022/07/06 04:59:47;;;;;;;2.85;1.38;;;23.20;90.00;;;;;;5033623;28;20075;-83
2022/07/06 05:02:13;;;;;;;2.45;1.30;;;23.10;90.30;;;;;;5016005;28;20484;-83
2022/07/06 05:04:39;;;;;;;4.43;1.60;;;23.10;90.00;;;;;;5016292;28;20502;-83
2022/07/06 05:07:04;;;;;;;2.92;1.70;;;23.10;90.00;;;;;;5008018;28;20064;-83
2022/07/06 05:09:30;;;;;;;3.28;1.58;;;23.20;90.10;;;;;;4999044;28;20036;-83
2022/07/06 05:11:56;;;;;;;3.35;1.67;;;23.10;90.10;;;;;;4999811;28;20079;-83
2022/07/06 05:14:21;;;;;;;2.28;1.40;;;23.10;90.20;;;;;;5017233;28;20026;-84
2022/07/06 05:16:47;;;;;;;4.78;1.50;;;23.10;90.20;;;;;;5010089;28;20347;-83
2022/07/06 05:19:13;;;;;;;3.80;1.70;;;23.10;90.20;;;;;;5002689;28;20116;-83
2022/07/06 05:21:38;;;;;;;4.03;1.70;;;23.20;90.30;;;;;;5017646;28;20037;-83
2022/07/06 05:24:04;;;;;;;4.57;1.80;;;23.10;90.30;;;;;;5004524;28;20042;-83
2022/07/06 05:26:30;;;;;;;3.03;1.60;;;23.10;90.30;;;;;;5011424;28;20034;-83
2022/07/06 05:28:56;;;;;;;5.72;1.92;;;23.10;90.30;;;;;;4999627;28;20125;-83
2022/07/06 05:31:21;;;;;;;2.55;1.40;;;23.10;90.40;;;;;;5011687;28;20384;-83
2022/07/06 05:33:47;;;;;;;2.78;1.23;;;23.10;90.40;;;;;;5024403;28;20096;-83
2022/07/06 05:36:13;;;;;;;2.83;1.55;;;23.10;90.40;;;;;;5013232;28;20025;-83
2022/07/06 05:38:38;;;;;;;4.05;1.70;;;23.10;90.50;;;;;;5002877;28;20109;-83
2022/07/06 05:41:04;;;;;;;4.88;1.67;;;23.10;90.50;;;;;;5030813;28;20036;-83
2022/07/06 05:43:30;;;;;;;3.95;1.48;;;23.10;90.50;;;;;;5021537;28;20030;-83
2022/07/06 05:45:55;;;;;;;2.40;1.60;;;23.10;90.50;;;;;;5025870;28;20029;-84
2022/07/06 05:51:05;;;;;;;3.67;1.80;;;23.10;90.60;;;;;;5024218;28;20029;-83
2022/07/06 05:53:31;;;;;;;10.07;1.77;;;23.10;90.50;;;;;;5002952;28;20049;-83
2022/07/06 05:55:57;;;;;;;3.90;2.00;;;23.10;90.60;;;;;;5005409;28;20082;-83
2022/07/06 05:58:24;;;;;;;3.25;1.52;;;23.10;90.60;;;;;;5019911;28;20025;-83
2022/07/06 06:00:50;;;;;;;2.42;1.65;;;23.10;90.60;;;;;;4998100;28;20033;-83
2022/07/06 06:03:16;;;;;;;4.07;1.40;;;23.10;90.60;;;;;;5003004;28;20029;-83
2022/07/06 06:05:42;;;;;;;4.82;1.63;;;23.10;90.60;;;;;;5009347;28;20030;-83
2022/07/06 06:08:07;;;;;;;2.65;1.60;;;23.10;90.70;;;;;;5000006;28;20030;-83
2022/07/06 06:10:33;;;;;;;2.92;1.50;;;23.10;90.70;;;;;;5009739;28;20025;-83
2022/07/06 06:12:59;;;;;;;3.00;1.38;;;23.20;90.70;;;;;;5023695;28;20032;-83
2022/07/06 06:15:25;;;;;;;3.17;1.60;;;23.10;90.70;;;;;;4998036;28;20053;-83
2022/07/06 06:17:50;;;;;;;3.05;1.50;;;23.20;90.80;;;;;;5015338;28;20088;-83
2022/07/06 06:20:16;;;;;;;4.85;2.10;;;23.10;90.80;;;;;;4997062;28;20079;-83
2022/07/06 06:22:56;;;;;;;3.85;1.70;;;23.20;90.80;;;;;;5004891;28;20025;-83
2022/07/06 06:25:34;;;;;;;2.80;1.45;;;23.20;90.80;;;;;;5008380;28;20031;-83
2022/07/06 06:28:00;;;;;;;4.38;1.80;;;23.20;90.80;;;;;;5014203;28;20396;-83
2022/07/06 06:30:26;;;;;;;2.95;1.70;;;23.20;90.80;;;;;;5016063;28;20128;-83
2022/07/06 06:33:04;;;;;;;1.80;1.42;;;23.20;90.80;;;;;;5014284;28;20061;-83
2022/07/06 06:35:30;;;;;;;2.28;1.40;;;23.20;90.80;;;;;;5012155;28;20488;-83
2022/07/06 06:37:56;;;;;;;2.72;1.40;;;23.20;90.80;;;;;;5014673;28;20033;-83
2022/07/06 06:40:22;;;;;;;2.97;1.55;;;23.20;90.80;;;;;;5000013;28;20038;-83
2022/07/06 06:42:48;;;;;;;2.20;1.60;;;23.20;90.80;;;;;;5023682;28;20181;-83
2022/07/06 06:45:13;;;;;;;3.95;1.60;;;23.20;90.80;;;;;;5028126;28;20416;-83
2022/07/06 06:47:39;;;;;;;2.92;1.52;;;23.20;90.80;;;;;;5033664;28;20440;-83
2022/07/06 06:50:05;;;;;;;2.65;1.30;;;23.20;90.70;;;;;;5000220;28;20021;-82
2022/07/06 06:52:31;;;;;;;4.13;1.50;;;23.30;90.80;;;;;;4997463;28;20033;-83
2022/07/06 06:54:56;;;;;;;2.13;1.50;;;23.30;90.70;;;;;;5014936;28;20167;-83
2022/07/06 06:57:22;;;;;;;2.50;1.45;;;23.30;90.70;;;;;;5022039;28;20022;-83
2022/07/06 06:59:47;;;;;;;2.95;1.52;;;23.30;90.70;;;;;;5001631;28;20144;-83
2022/07/06 07:02:13;;;;;;;3.28;1.38;;;23.30;90.70;;;;;;4999443;28;20030;-83
2022/07/06 07:04:39;;;;;;;1.95;1.50;;;23.30;90.60;;;;;;4998878;28;20065;-83
2022/07/06 07:07:05;;;;;;;2.78;1.48;;;23.30;91.00;;;;;;5032709;28;20025;-83
2022/07/06 07:09:30;;;;;;;3.28;1.50;;;23.40;90.70;;;;;;5007009;28;20126;-83
2022/07/06 07:11:57;;;;;;;2.80;1.75;;;23.40;90.60;;;;;;5007037;28;20061;-83
2022/07/06 07:14:23;;;;;;;2.63;1.50;;;23.40;90.60;;;;;;5012631;28;20468;-83
2022/07/06 07:16:48;;;;;;;2.88;1.55;;;23.40;90.60;;;;;;4996478;28;20021;-83
2022/07/06 07:19:14;;;;;;;4.22;1.30;;;23.40;90.60;;;;;;5010559;28;20125;-83
2022/07/06 07:21:40;;;;;;;2.97;1.33;;;23.40;90.60;;;;;;5009204;28;20021;-83
2022/07/06 07:24:07;;;;;;;3.38;1.67;;;23.40;90.60;;;;;;5001878;28;20465;-82
2022/07/06 07:26:33;;;;;;;3.03;1.20;;;23.40;90.60;;;;;;5012125;28;20116;-83
2022/07/06 07:28:58;;;;;;;5.97;1.98;;;23.50;90.60;;;;;;5001480;28;20041;-83
2022/07/06 07:31:24;;;;;;;2.70;1.40;;;23.30;90.20;;;;;;5017172;28;20485;-83
2022/07/06 07:33:50;;;;;;;8.85;1.40;;;22.80;90.50;;;;;;5008420;28;20120;-83
2022/07/06 07:36:16;;;;;;;7.30;1.38;;;22.70;90.90;;;;;;5018068;28;20100;-83
2022/07/06 07:38:42;;;;;;;4.07;1.45;;;22.70;90.90;;;;;;5002550;28;20477;-83
2022/07/06 07:41:07;;;;;;;3.67;1.20;;;22.90;90.90;;;;;;4996878;28;20037;-83
2022/07/06 07:43:33;;;;;;;4.43;1.35;;;23.00;90.80;;;;;;5005307;28;20030;-83
2022/07/06 07:45:59;;;;;;;5.40;1.30;;;23.10;90.70;;;;;;5029134;28;20525;-83
2022/07/06 07:48:24;;;;;;;4.20;1.80;;;23.20;90.60;;;;;;5004402;28;20046;-83
2022/07/06 07:50:50;;;;;;;2.63;1.25;;;23.30;90.60;;;;;;5015137;28;20157;-83
2022/07/06 07:53:16;;;;;;;5.50;1.77;;;23.40;90.60;;;;;;5024152;28;20017;-83
2022/07/06 07:55:42;;;;;;;3.83;1.70;;;23.40;90.50;;;;;;5022904;28;20473;-83
2022/07/06 07:58:08;;;;;;;6.60;1.70;;;23.50;90.50;;;;;;5008875;28;20034;-83
2022/07/06 08:00:34;;;;;;;3.95;1.45;;;23.50;90.50;;;;;;5005888;28;20030;-83
2022/07/06 08:03:00;;;;;;;3.78;1.50;;;23.50;90.50;;;;;;5003782;28;20125;-83
2022/07/06 08:05:26;;;;;;;6.00;1.38;;;23.60;90.50;;;;;;5012726;28;20037;-83
2022/07/06 08:07:52;;;;;;;4.25;1.20;;;23.60;90.40;;;;;;5010385;28;20120;-83
2022/07/06 08:10:18;;;;;;;2.80;1.13;;;23.60;90.70;;;;;;5014870;28;20050;-84
2022/07/06 08:12:44;;;;;;;4.95;1.55;;;23.60;90.40;;;;;;5022743;28;20071;-84
2022/07/06 08:15:10;;;;;;;4.05;1.48;;;23.70;90.40;;;;;;5009786;28;20408;-83
2022/07/06 08:17:35;;;;;;;2.35;1.30;;;23.70;90.40;;;;;;5013512;28;20044;-83
2022/07/06 08:20:01;;;;;;;3.88;1.40;;;23.70;90.40;;;;;;5011257;28;20026;-83
2022/07/06 08:22:29;;;;;;;2.03;1.30;;;23.80;90.40;;;;;;5004264;28;20112;-83
2022/07/06 08:24:55;;;;;;;3.08;1.50;;;23.70;90.30;;;;;;5012694;28;20026;-83
2022/07/06 08:27:21;;;;;;;1.77;1.10;;;23.80;90.30;;;;;;5012035;28;20037;-83
2022/07/06 08:29:46;;;;;;;3.60;1.30;;;23.80;90.30;;;;;;5027550;28;20127;-83
2022/07/06 08:32:12;;;;;;;3.90;1.30;;;23.80;90.30;;;;;;5020499;28;20017;-83
2022/07/06 08:34:38;;;;;;;3.35;1.33;;;23.90;90.30;;;;;;5022209;28;20072;-83
2022/07/06 08:37:03;;;;;;;2.13;1.15;;;23.90;90.20;;;;;;5017877;28;20030;-83
2022/07/06 08:39:29;;;;;;;3.90;1.40;;;23.90;90.20;;;;;;5019761;28;20082;-83
2022/07/06 08:41:58;;;;;;;4.78;1.52;;;24.00;90.20;;;;;;5027437;28;20526;-84
2022/07/06 08:44:26;;;;;;;4.43;1.50;;;24.00;90.20;;;;;;5008002;28;20083;-84
2022/07/06 08:46:54;;;;;;;1.83;1.30;;;24.00;90.20;;;;;;5007030;28;20085;-84
2022/07/06 08:49:20;;;;;;;1.77;1.23;;;24.00;90.10;;;;;;5021112;28;20420;-84
2022/07/06 08:51:47;;;;;;;2.67;1.30;;;24.00;90.10;;;;;;5004853;28;20044;-84
2022/07/06 08:54:14;;;;;;;2.50;1.50;;;24.10;90.40;;;;;;5029511;28;20018;-84
2022/07/06 08:56:40;;;;;;;4.70;1.60;;;24.10;90.10;;;;;;5019307;28;20476;-84
2022/07/06 08:59:08;;;;;;;4.75;1.20;;;24.20;90.00;;;;;;5001119;28;20026;-84
2022/07/06 09:01:36;;;;;;;4.80;1.50;;;24.20;90.00;;;;;;5025718;28;20105;-84
2022/07/06 09:04:04;;;;;;;7.50;1.90;;;24.20;88.90;;;;;;5001748;28;20057;-84
2022/07/06 09:06:30;;;;;;;4.05;1.65;;;24.20;88.30;;;;;;5008631;28;20029;-83
2022/07/06 09:08:57;;;;;;;17.83;1.88;;;24.10;88.40;;;;;;5033521;28;20025;-83
2022/07/06 09:11:23;;;;;;;7.03;1.20;;;24.00;88.80;;;;;;5024136;28;20022;-83
2022/07/06 09:13:52;;;;;;;3.72;1.35;;;24.10;89.80;;;;;;5011111;28;20083;-83
2022/07/06 09:16:28;;;;;;;4.95;1.40;;;24.10;89.10;;;;;;5021495;28;20021;-83
2022/07/06 09:18:54;;;;;;;4.90;1.40;;;24.20;89.10;;;;;;5009358;28;20397;-83
2022/07/06 09:21:30;;;;;;;5.07;1.88;;;24.20;89.00;;;;;;5008932;28;20033;-83
2022/07/06 09:23:57;;;;;;;3.25;1.15;;;24.30;89.00;;;;;;5016310;28;20055;-82
2022/07/06 09:26:24;;;;;;;7.22;1.70;;;24.30;88.90;;;;;;5017648;28;20032;-82
2022/07/06 09:28:50;;;;;;;2.97;1.40;;;24.40;88.80;;;;;;5009065;28;20030;-82
2022/07/06 09:31:16;;;;;;;4.28;1.30;;;24.40;88.90;;;;;;5003830;28;20179;-83
2022/07/06 09:34:05;;;;;;;1.90;1.00;;;24.40;88.80;;;;;;5004902;28;20120;-83
2022/07/06 09:36:50;;;;;;;2.92;1.27;;;24.50;88.90;;;;;;5000640;28;20053;-82
2022/07/06 09:39:21;;;;;;;4.95;1.55;;;24.50;88.80;;;;;;5006750;28;20038;-84
2022/07/06 09:41:49;;;;;;;3.90;1.08;;;24.50;88.90;;;;;;5023893;28;20034;-84
2022/07/06 09:44:25;;;;;;;2.35;1.20;;;24.50;88.90;;;;;;5011474;28;20049;-84
2022/07/06 09:46:52;;;;;;;3.15;1.50;;;24.50;88.90;;;;;;5014028;28;20409;-84
2022/07/06 09:49:20;;;;;;;2.33;1.15;;;24.60;88.90;;;;;;5026973;28;20433;-83
2022/07/06 09:51:48;;;;;;;5.10;1.55;;;24.60;88.80;;;;;;5018591;28;20432;-83
2022/07/06 09:54:15;;;;;;;2.70;1.20;;;24.60;88.70;;;;;;5009932;28;20120;-83
2022/07/06 09:56:44;;;;;;;4.45;1.35;;;24.70;88.80;;;;;;5005519;28;20057;-83
2022/07/06 09:59:11;;;;;;;4.43;1.52;;;24.70;88.80;;;;;;5001430;28;20052;-83
2022/07/06 10:01:38;;;;;;;2.35;1.35;;;24.70;88.70;;;;;;5000834;28;20492;-83
2022/07/06 10:04:06;;;;;;;3.58;1.55;;;24.70;88.70;;;;;;5006639;28;20021;-82
2022/07/06 10:06:31;;;;;;;2.22;1.20;;;24.80;88.70;;;;;;5015800;28;20026;-83
2022/07/06 10:08:58;;;;;;;2.65;1.52;;;24.80;88.60;;;;;;5012312;28;20388;-83
2022/07/06 10:11:24;;;;;;;1.95;1.30;;;24.80;88.60;;;;;;5009011;28;20492;-83
2022/07/06 10:13:55;;;;;;;3.33;1.45;;;24.90;88.70;;;;;;5008650;28;20032;-83
2022/07/06 10:16:22;;;;;;;2.55;1.27;;;24.90;88.60;;;;;;5019164;28;20021;-83
2022/07/06 10:18:50;;;;;;;4.30;1.27;;;24.90;88.60;;;;;;4999653;28;20457;-84
2022/07/06 10:21:17;;;;;;;3.90;1.38;;;24.90;88.60;;;;;;5007116;28;20038;-83
2022/07/06 10:23:44;;;;;;;5.15;1.45;;;24.90;88.60;;;;;;5015713;28;20036;-84
2022/07/06 10:26:10;;;;;;;4.00;1.55;;;25.00;88.70;;;;;;5020862;28;20488;-83
2022/07/06 10:28:37;;;;;;;2.72;1.30;;;25.00;88.50;;;;;;5012468;28;20507;-83
2022/07/06 10:31:03;;;;;;;3.05;1.50;;;25.00;88.70;;;;;;5008176;28;20050;-83
2022/07/06 10:33:30;;;;;;;4.60;1.42;;;25.00;88.60;;;;;;5005400;28;20140;-83
2022/07/06 10:35:57;;;;;;;5.05;1.55;;;25.10;88.70;;;;;;5008763;28;20029;-83
2022/07/06 10:38:32;;;;;;;4.55;1.67;;;25.10;88.60;;;;;;5011522;28;20084;-83
2022/07/06 10:41:16;;;;;;;2.88;1.55;;;25.10;88.50;;;;;;5013036;28;20092;-83
2022/07/06 10:43:44;;;;;;;4.75;1.30;;;25.20;88.40;;;;;;5007824;28;20026;-83
2022/07/06 10:46:13;;;;;;;2.38;1.35;;;25.20;88.50;;;;;;5021529;28;20378;-83
2022/07/06 10:48:43;;;;;;;4.22;1.50;;;25.30;88.50;;;;;;5004504;28;20120;-84
2022/07/06 10:51:11;;;;;;;2.42;1.40;;;25.30;88.30;;;;;;5010986;28;20049;-83
2022/07/06 10:53:39;;;;;;;2.15;1.50;;;25.30;88.30;;;;;;5007269;28;20421;-84
2022/07/06 10:56:09;;;;;;;2.00;1.27;;;25.30;88.30;;;;;;5023398;28;20045;-83
2022/07/06 10:58:47;;;;;;;3.10;1.45;;;25.30;88.20;;;;;;5000659;28;20470;-83
2022/07/06 11:01:13;;;;;;;4.63;1.55;;;25.30;88.30;;;;;;5003563;28;20477;-82
2022/07/06 11:03:49;;;;;;;4.50;1.45;;;25.30;88.20;;;;;;5016954;28;20022;-83
2022/07/06 11:06:22;;;;;;;3.50;1.52;;;25.30;88.10;;;;;;5004748;28;20057;-83
2022/07/06 11:08:52;;;;;;;3.78;1.35;;;25.30;88.20;;;;;;5024731;28;20112;-83
2022/07/06 11:11:33;;;;;;;3.72;1.50;;;25.30;89.00;;;;;;5012654;28;20365;-83
2022/07/06 11:14:13;;;;;;;4.97;1.52;;;25.30;88.50;;;;;;5017298;28;20021;-83
2022/07/06 11:17:01;;;;;;;2.58;1.58;;;25.30;88.30;;;;;;5007680;28;20532;-83
2022/07/06 11:19:27;;;;;;;4.03;1.67;;;25.30;88.30;;;;;;5001069;28;20030;-83
2022/07/06 11:21:58;;;;;;;8.13;1.70;;;25.30;88.40;;;;;;5018878;28;20033;-83
2022/07/06 11:24:31;;;;;;;5.63;1.60;;;25.30;88.50;;;;;;5012900;28;20029;-83
2022/07/06 11:26:59;;;;;;;4.43;1.52;;;25.30;88.60;;;;;;5024450;28;20048;-83
2022/07/06 11:29:26;;;;;;;3.35;1.48;;;25.20;88.60;;;;;;5011121;28;20172;-83
2022/07/06 11:32:00;;;;;;;5.00;1.90;;;25.20;88.40;;;;;;5011690;28;20029;-84
2022/07/06 11:34:31;;;;;;;4.25;1.42;;;25.10;88.90;;;;;;5023893;28;20511;-83
2022/07/06 11:37:09;;;;;;;3.25;1.25;;;25.10;89.00;;;;;;5003944;28;20370;-83
2022/07/06 11:39:40;;;;;;;4.18;1.20;;;25.00;89.10;;;;;;5026235;28;20508;-83
2022/07/06 11:42:07;;;;;;;4.95;1.50;;;25.00;89.30;;;;;;5007328;28;20021;-83
2022/07/06 11:44:34;;;;;;;2.38;1.52;;;25.00;89.30;;;;;;5005882;28;20036;-83
2022/07/06 11:47:02;;;;;;;5.05;1.50;;;25.00;89.30;;;;;;5014584;28;20068;-83
2022/07/06 11:49:29;;;;;;;3.38;1.50;;;24.90;89.50;;;;;;5019420;28;20045;-83
2022/07/06 11:51:55;;;;;;;3.65;1.70;;;24.90;89.60;;;;;;5003555;28;20041;-84
2022/07/06 11:54:22;;;;;;;4.47;1.70;;;24.90;89.70;;;;;;5005581;28;20028;-84
2022/07/06 11:56:53;;;;;;;4.07;1.80;;;24.80;89.90;;;;;;5017947;28;20037;-83
2022/07/06 11:59:34;;;;;;;2.92;1.40;;;24.80;90.00;;;;;;5022788;28;20102;-83
2022/07/06 12:02:06;;;;;;;4.13;1.70;;;24.80;90.10;;;;;;5011109;28;20022;-83
2022/07/06 12:04:35;;;;;;;3.22;1.60;;;24.80;90.10;;;;;;5010089;28;20068;-83
2022/07/06 12:07:13;;;;;;;2.70;1.70;;;24.70;90.10;;;;;;5001044;28;20066;-83
2022/07/06 12:09:40;;;;;;;4.32;1.40;;;24.70;90.10;;;;;;5025363;28;20030;-83
2022/07/06 12:12:07;;;;;;;2.53;1.38;;;24.70;90.10;;;;;;5006084;28;20032;-83
2022/07/06 12:14:35;;;;;;;2.15;1.55;;;24.60;90.10;;;;;;5011273;28;20025;-83
2022/07/06 12:17:05;;;;;;;3.03;1.40;;;24.60;90.10;;;;;;5007932;28;20507;-83
2022/07/06 12:19:32;;;;;;;2.90;1.42;;;24.60;90.10;;;;;;5025956;28;20024;-83
2022/07/06 12:21:58;;;;;;;4.05;1.80;;;24.60;90.20;;;;;;5005421;28;20032;-83
2022/07/06 12:24:26;;;;;;;2.88;1.50;;;24.60;90.20;;;;;;5003631;28;20500;-83
2022/07/06 12:26:53;;;;;;;3.60;1.60;;;24.70;90.20;;;;;;5015670;28;20485;-83
2022/07/06 12:29:19;;;;;;;2.67;1.60;;;24.60;90.20;;;;;;4999389;28;20608;-83
2022/07/06 12:31:53;;;;;;;2.55;1.48;;;24.70;90.20;;;;;;5002590;28;20026;-82
2022/07/06 12:34:27;;;;;;;3.03;1.60;;;24.70;90.20;;;;;;5021694;28;20526;-82
2022/07/06 12:36:58;;;;;;;3.03;1.42;;;24.70;90.10;;;;;;5023244;28;20112;-82
2022/07/06 12:39:28;;;;;;;2.88;1.58;;;24.70;90.10;;;;;;5017884;28;20061;-83
2022/07/06 12:42:07;;;;;;;3.40;1.52;;;24.80;90.00;;;;;;5007256;28;20396;-83
2022/07/06 12:44:46;;;;;;;3.35;1.52;;;24.80;90.00;;;;;;5034493;28;20026;-82
2022/07/06 12:47:12;;;;;;;3.17;1.50;;;24.90;90.00;;;;;;5022231;28;20049;-83
2022/07/06 12:49:39;;;;;;;3.35;1.63;;;24.90;89.80;;;;;;5013629;28;20472;-83